createdAt,value
2023-04-07T00:00:20.629Z,99971.31
2023-04-07T00:05:22.285Z,99973.09
2023-04-07T00:10:24.833Z,99964.78
2023-04-07T00:15:26.624Z,99953.13
2023-04-07T00:20:28.418Z,99966.53
2023-04-07T00:25:30.026Z,99951.50
2023-04-07T00:30:31.673Z,99955.91
2023-04-07T00:35:33.360Z,99951.00
2023-04-07T00:40:35.028Z,99947.53
2023-04-07T00:45:38.112Z,99951.72
2023-04-07T00:50:40.021Z,99945.78
2023-04-07T00:55:41.720Z,99942.41
2023-04-07T01:00:55.396Z,99930.03
2023-04-07T01:06:02.176Z,99935.09
2023-04-07T01:11:13.319Z,99925.22
2023-04-07T01:16:30.466Z,99928.41
2023-04-07T01:21:35.164Z,99922.53
2023-04-07T01:26:38.217Z,99924.75
2023-04-07T01:31:42.109Z,99916.38
2023-04-07T01:36:47.038Z,99926.53
2023-04-07T01:41:50.824Z,99908.72
2023-04-07T01:46:53.110Z,99917.22
2023-04-07T01:51:56.100Z,99912.09
2023-04-07T01:56:57.785Z,99900.09
2023-04-07T02:02:00.647Z,99905.94
2023-04-07T02:07:09.644Z,99901.88
2023-04-07T02:12:17.404Z,99906.00
2023-04-07T02:17:34.915Z,99908.59
2023-04-07T02:22:38.579Z,99909.16
2023-04-07T02:27:40.289Z,99909.84
2023-04-07T02:32:42.097Z,99900.63
2023-04-07T02:37:45.541Z,99905.63
2023-04-07T02:42:48.394Z,99899.44
2023-04-07T02:47:50.174Z,99904.22
2023-04-07T02:52:52.991Z,99904.25
2023-04-07T02:57:54.693Z,99901.59
2023-04-07T03:03:10.189Z,99899.91
2023-04-07T03:08:14.962Z,99903.28
2023-04-07T03:13:19.122Z,99899.06
2023-04-07T03:18:20.974Z,99894.69
2023-04-07T03:23:24.036Z,99892.91
2023-04-07T03:28:26.598Z,99893.41
2023-04-07T03:33:29.604Z,99899.31
2023-04-07T03:38:31.738Z,99886.50
2023-04-07T03:43:37.006Z,99894.88
2023-04-07T03:48:39.169Z,99889.72
2023-04-07T03:53:43.277Z,99887.72
2023-04-07T03:58:59.982Z,99896.41
2023-04-07T04:04:06.442Z,99883.69
2023-04-07T04:09:08.192Z,99893.06
2023-04-07T04:14:14.450Z,99887.91
2023-04-07T04:19:18.271Z,99887.19
2023-04-07T04:24:20.196Z,99882.66
2023-04-07T04:29:23.741Z,99883.97
2023-04-07T04:34:27.611Z,99878.09
2023-04-07T04:39:30.602Z,99886.53
2023-04-07T04:44:33.081Z,99879.78
2023-04-07T04:49:37.366Z,99883.09
2023-04-07T04:54:39.682Z,99885.56
2023-04-07T04:59:42.623Z,99890.94
2023-04-07T05:04:44.492Z,99886.88
2023-04-07T05:10:02.605Z,99895.41
2023-04-07T05:15:07.278Z,99895.59
2023-04-07T05:20:10.407Z,99895.00
2023-04-07T05:25:15.083Z,99884.16
2023-04-07T05:30:19.834Z,99900.16
2023-04-07T05:35:21.602Z,99897.16
2023-04-07T05:40:30.347Z,99893.56
2023-04-07T05:45:35.595Z,99896.13
2023-04-07T05:50:37.665Z,99905.47
2023-04-07T05:55:43.809Z,99909.19
2023-04-07T06:00:50.857Z,99901.97
2023-04-07T06:05:53.596Z,99911.38
2023-04-07T06:10:56.842Z,99910.69
2023-04-07T06:15:58.705Z,99904.75
2023-04-07T06:21:00.795Z,99900.69
2023-04-07T06:26:02.493Z,99905.25
2023-04-07T06:31:05.212Z,99902.13
2023-04-07T06:36:07.602Z,99891.47
2023-04-07T06:41:16.886Z,99899.47
2023-04-07T06:46:19.308Z,99900.59
2023-04-07T06:51:21.096Z,99895.66
2023-04-07T06:56:23.300Z,99892.00
2023-04-07T07:01:24.952Z,99892.63
2023-04-07T07:06:27.482Z,99899.25
2023-04-07T07:11:29.250Z,99890.28
2023-04-07T07:16:31.136Z,99890.34
2023-04-07T07:21:32.988Z,99892.03
2023-04-07T07:26:34.642Z,99900.84
2023-04-07T07:31:36.335Z,99903.59
2023-04-07T07:36:38.056Z,99907.00
2023-04-07T07:41:40.372Z,99904.91
2023-04-07T07:46:42.033Z,99894.41
2023-04-07T07:51:44.195Z,99898.00
2023-04-07T07:56:45.842Z,99890.66
2023-04-07T08:01:47.663Z,99907.66
2023-04-07T08:06:50.886Z,99892.34
2023-04-07T08:11:52.815Z,99907.19
2023-04-07T08:16:54.661Z,99908.50
2023-04-07T08:21:56.990Z,99918.97
2023-04-07T08:26:58.672Z,99908.97
2023-04-07T08:32:00.477Z,99905.22
2023-04-07T08:37:02.799Z,99903.41
2023-04-07T08:42:04.655Z,99902.25
2023-04-07T08:47:08.030Z,99904.00
2023-04-07T08:52:13.220Z,99911.59
2023-04-07T08:57:16.629Z,99910.13
2023-04-07T09:02:19.569Z,99901.69
2023-04-07T09:07:21.365Z,99890.00
2023-04-07T09:12:23.052Z,99896.47
2023-04-07T09:17:29.159Z,99894.94
2023-04-07T09:22:47.252Z,99888.75
2023-04-07T09:27:59.419Z,99884.78
2023-04-07T09:33:02.066Z,99873.63
2023-04-07T09:38:03.747Z,99882.94
2023-04-07T09:43:06.467Z,99890.69
2023-04-07T09:48:19.385Z,99887.13
2023-04-07T09:53:23.267Z,99872.91
2023-04-07T09:58:25.149Z,99878.31
2023-04-07T10:03:28.283Z,99884.78
2023-04-07T10:08:36.308Z,99877.91
2023-04-07T10:13:40.770Z,99862.78
2023-04-07T10:18:42.834Z,99875.94
2023-04-07T10:23:59.986Z,99876.78
2023-04-07T10:29:08.391Z,99873.31
2023-04-07T10:34:10.035Z,99874.69
2023-04-07T10:39:11.824Z,99875.25
2023-04-07T10:44:43.060Z,99876.09
2023-04-07T10:50:18.231Z,99881.94
2023-04-07T10:55:39.182Z,99873.31
2023-04-07T11:00:41.657Z,99889.81
2023-04-07T11:05:43.633Z,99883.91
2023-04-07T11:10:48.255Z,99874.50
2023-04-07T11:15:53.928Z,99887.50
2023-04-07T11:21:00.182Z,99880.78
2023-04-07T11:26:03.176Z,99880.16
2023-04-07T11:31:04.980Z,99881.81
2023-04-07T11:36:07.664Z,99868.84
2023-04-07T11:41:16.024Z,99870.94
2023-04-07T11:46:18.940Z,99863.78
2023-04-07T11:51:25.283Z,99872.53
2023-04-07T11:56:28.086Z,99858.38
2023-04-07T12:01:41.450Z,99856.84
2023-04-07T12:06:44.866Z,99869.47
2023-04-07T12:11:50.250Z,99859.03
2023-04-07T12:16:53.357Z,99862.66
2023-04-07T12:21:56.365Z,99863.78
2023-04-07T12:26:58.233Z,99848.44
2023-04-07T12:32:00.795Z,99851.22
2023-04-07T12:37:02.454Z,99853.56
2023-04-07T12:42:05.214Z,99851.31
2023-04-07T12:47:07.056Z,99855.47
2023-04-07T12:52:08.949Z,99846.31
2023-04-07T12:57:11.109Z,99861.16
2023-04-07T13:02:13.930Z,99863.41
2023-04-07T13:07:16.282Z,99870.44
2023-04-07T13:12:17.922Z,99856.38
2023-04-07T13:17:19.724Z,99851.00
2023-04-07T13:22:24.326Z,99848.22
2023-04-07T13:27:27.481Z,99854.59
2023-04-07T13:32:29.306Z,99841.97
2023-04-07T13:37:31.154Z,99833.47
2023-04-07T13:42:33.027Z,99846.03
2023-04-07T13:47:35.418Z,99846.25
2023-04-07T13:52:37.514Z,99835.03
2023-04-07T13:57:39.392Z,99841.88
2023-04-07T14:02:41.388Z,99826.09
2023-04-07T14:07:43.191Z,99839.34
2023-04-07T14:12:45.110Z,99853.66
2023-04-07T14:17:47.044Z,99846.22
2023-04-07T14:22:48.795Z,99843.94
2023-04-07T14:27:52.244Z,99837.66
2023-04-07T14:32:53.963Z,99834.97
2023-04-07T14:37:56.853Z,99834.91
2023-04-07T14:48:04.113Z,99836.88
2023-04-07T14:53:06.687Z,99833.47
2023-04-07T14:58:08.551Z,99830.59
2023-04-07T15:03:14.362Z,99829.66
2023-04-07T15:08:19.434Z,99835.53
2023-04-07T15:13:21.838Z,99840.09
2023-04-07T15:18:25.203Z,99845.38
2023-04-07T15:23:27.045Z,99843.22
2023-04-07T15:28:32.701Z,99830.56
2023-04-07T15:33:37.807Z,99833.41
2023-04-07T15:38:40.839Z,99823.97
2023-04-07T15:43:43.184Z,99833.81
2023-04-07T15:48:46.165Z,99844.56
2023-04-07T15:53:48.595Z,99836.38
2023-04-07T15:58:51.073Z,99839.63
2023-04-07T16:03:54.163Z,99827.03
2023-04-07T16:08:56.965Z,99814.25
2023-04-07T16:13:59.281Z,99821.13
2023-04-07T16:19:02.453Z,99820.34
2023-04-07T16:24:04.469Z,99828.97
2023-04-07T16:29:06.574Z,99833.28
2023-04-07T16:34:08.556Z,99840.59
2023-04-07T16:39:10.795Z,99839.66
2023-04-07T16:44:12.747Z,99839.47
2023-04-07T16:49:14.524Z,99850.19
2023-04-07T16:54:16.191Z,99856.25
2023-04-07T16:59:17.859Z,99858.84
2023-04-07T17:04:19.645Z,99875.75
2023-04-07T17:09:21.494Z,99871.41
2023-04-07T17:14:23.354Z,99874.00
2023-04-07T17:19:25.189Z,99880.03
2023-04-07T17:24:26.885Z,99875.16
2023-04-07T17:29:31.246Z,99883.69
2023-04-07T17:34:33.085Z,99885.88
2023-04-07T17:39:34.966Z,99892.13
2023-04-07T17:44:37.487Z,99887.88
2023-04-07T17:49:39.701Z,99890.03
2023-04-07T17:54:41.773Z,99888.94
2023-04-07T17:59:43.526Z,99902.28
2023-04-07T18:04:45.652Z,99902.78
2023-04-07T18:09:47.721Z,99903.72
2023-04-07T18:14:49.474Z,99901.94
2023-04-07T18:19:51.548Z,99917.16
2023-04-07T18:24:53.214Z,99920.38
2023-04-07T18:29:56.212Z,99935.41
2023-04-07T18:34:57.965Z,99937.13
2023-04-07T18:39:59.659Z,99956.81
2023-04-07T18:45:01.542Z,99955.69
2023-04-07T18:50:03.600Z,99964.00
2023-04-07T18:55:06.060Z,99958.63
2023-04-07T19:00:08.728Z,99969.59
2023-04-07T19:05:13.498Z,99971.50
2023-04-07T19:10:15.098Z,99961.47
2023-04-07T19:15:16.810Z,99964.06
2023-04-07T19:20:18.550Z,99969.09
2023-04-07T19:25:20.395Z,99967.31
2023-04-07T19:30:22.244Z,99973.22
2023-04-07T19:35:23.909Z,99971.59
2023-04-07T19:40:26.117Z,99979.97
2023-04-07T19:45:27.847Z,99976.59
2023-04-07T19:50:29.570Z,99979.03
2023-04-07T19:55:31.217Z,99983.16
2023-04-07T20:00:35.002Z,99991.50
2023-04-07T20:05:37.178Z,99982.28
2023-04-07T20:10:39.164Z,99980.59
2023-04-07T20:15:41.012Z,99974.72
2023-04-07T20:20:42.616Z,99968.75
2023-04-07T20:25:44.421Z,99973.72
2023-04-07T20:30:46.380Z,99972.78
2023-04-07T20:35:49.084Z,99974.50
2023-04-07T20:40:51.133Z,99971.09
2023-04-07T20:45:53.521Z,99973.56
2023-04-07T20:50:55.206Z,99971.72
2023-04-07T20:55:59.044Z,99977.38
2023-04-07T21:01:01.554Z,99971.63
2023-04-07T21:06:04.746Z,99973.66
2023-04-07T21:11:06.524Z,99974.75
2023-04-07T21:16:08.662Z,99975.38
2023-04-07T21:21:10.380Z,99979.53
2023-04-07T21:26:12.068Z,99989.97
2023-04-07T21:31:24.160Z,99982.63
2023-04-07T21:36:27.016Z,99990.66
2023-04-07T21:41:28.679Z,99976.31
2023-04-07T21:46:30.893Z,99982.09
2023-04-07T21:51:33.733Z,99985.34
2023-04-07T21:56:35.840Z,99982.72
2023-04-07T22:01:37.636Z,99979.50
2023-04-07T22:06:39.605Z,99981.03
2023-04-07T22:11:41.396Z,99977.47
2023-04-07T22:16:43.127Z,99973.00
2023-04-07T22:21:45.355Z,99983.78
2023-04-07T22:26:47.000Z,99976.69
2023-04-07T22:31:48.805Z,99981.53
2023-04-07T22:36:50.528Z,99980.66
2023-04-07T22:41:52.113Z,99980.41
2023-04-07T22:46:54.021Z,99979.94
2023-04-07T22:51:57.103Z,99989.25
2023-04-07T22:56:58.918Z,99982.84
2023-04-07T23:02:00.843Z,99989.00
2023-04-07T23:07:02.746Z,99998.78
2023-04-07T23:12:04.514Z,99998.03
2023-04-07T23:17:06.776Z,100005.47
2023-04-07T23:22:08.585Z,100018.81
2023-04-07T23:27:10.387Z,100006.88
2023-04-07T23:32:12.244Z,100010.25
2023-04-07T23:37:21.295Z,100011.41
2023-04-07T23:42:24.164Z,100009.50
2023-04-07T23:47:26.408Z,100012.25
2023-04-07T23:52:28.254Z,100004.78
2023-04-07T23:57:30.061Z,100014.91
